sensor_id;sensor_type;location;lat;lon;timestamp;temperature;humidity
5304;DHT22;2674;49.722;10.892;2022-12-05T00:00:54;4.50;99.90
5304;DHT22;2674;49.722;10.892;2022-12-05T00:03:20;4.50;99.90
5304;DHT22;2674;49.722;10.892;2022-12-05T00:05:46;4.40;99.90
5304;DHT22;2674;49.722;10.892;2022-12-05T00:08:12;4.40;99.90
5304;DHT22;2674;49.722;10.892;2022-12-05T00:10:38;4.50;99.90
5304;DHT22;2674;49.722;10.892;2022-12-05T00:13:05;4.50;99.90
5304;DHT22;2674;49.722;10.892;2022-12-05T00:15:35;4.40;99.90
5304;DHT22;2674;49.722;10.892;2022-12-05T00:18:00;4.40;99.90
5304;DHT22;2674;49.722;10.892;2022-12-05T00:20:26;4.50;99.90
5304;DHT22;2674;49.722;10.892;2022-12-05T00:22:52;4.50;99.90
5304;DHT22;2674;49.722;10.892;2022-12-05T00:25:18;4.50;99.90
5304;DHT22;2674;49.722;10.892;2022-12-05T00:27:44;4.50;99.90
5304;DHT22;2674;49.722;10.892;2022-12-05T00:30:10;4.50;99.90
5304;DHT22;2674;49.722;10.892;2022-12-05T00:32:36;4.50;99.90
5304;DHT22;2674;49.722;10.892;2022-12-05T00:35:02;4.50;99.90
5304;DHT22;2674;49.722;10.892;2022-12-05T00:37:28;4.50;99.90
5304;DHT22;2674;49.722;10.892;2022-12-05T00:39:54;4.50;99.90
5304;DHT22;2674;49.722;10.892;2022-12-05T00:42:20;4.50;99.90
5304;DHT22;2674;49.722;10.892;2022-12-05T00:44:48;4.50;99.90
5304;DHT22;2674;49.722;10.892;2022-12-05T00:47:14;4.50;99.90
5304;DHT22;2674;49.722;10.892;2022-12-05T00:49:40;4.50;99.90
5304;DHT22;2674;49.722;10.892;2022-12-05T00:52:05;4.50;99.90
5304;DHT22;2674;49.722;10.892;2022-12-05T00:54:31;4.60;99.90
5304;DHT22;2674;49.722;10.892;2022-12-05T00:56:57;4.60;99.90
5304;DHT22;2674;49.722;10.892;2022-12-05T00:59:23;4.60;99.90
5304;DHT22;2674;49.722;10.892;2022-12-05T01:01:50;4.60;99.90
5304;DHT22;2674;49.722;10.892;2022-12-05T01:04:19;4.60;99.90
5304;DHT22;2674;49.722;10.892;2022-12-05T01:06:46;4.60;99.90
5304;DHT22;2674;49.722;10.892;2022-12-05T01:09:14;4.60;99.90
5304;DHT22;2674;49.722;10.892;2022-12-05T01:11:41;4.60;99.90
5304;DHT22;2674;49.722;10.892;2022-12-05T01:14:10;4.60;99.90
5304;DHT22;2674;49.722;10.892;2022-12-05T01:16:38;4.70;99.90
5304;DHT22;2674;49.722;10.892;2022-12-05T01:19:16;4.60;99.90
5304;DHT22;2674;49.722;10.892;2022-12-05T01:21:43;4.60;99.90
5304;DHT22;2674;49.722;10.892;2022-12-05T01:24:10;4.60;99.90
5304;DHT22;2674;49.722;10.892;2022-12-05T01:26:36;4.60;99.90
5304;DHT22;2674;49.722;10.892;2022-12-05T01:29:03;4.60;99.90
5304;DHT22;2674;49.722;10.892;2022-12-05T01:31:31;4.50;99.90
5304;DHT22;2674;49.722;10.892;2022-12-05T01:33:59;4.50;99.90
5304;DHT22;2674;49.722;10.892;2022-12-05T01:36:26;4.60;99.90
5304;DHT22;2674;49.722;10.892;2022-12-05T01:38:53;4.60;99.90
5304;DHT22;2674;49.722;10.892;2022-12-05T01:41:24;4.60;99.90
5304;DHT22;2674;49.722;10.892;2022-12-05T01:46:35;4.60;99.90
5304;DHT22;2674;49.722;10.892;2022-12-05T01:51:51;4.60;99.90
5304;DHT22;2674;49.722;10.892;2022-12-05T01:54:20;4.60;99.90
5304;DHT22;2674;49.722;10.892;2022-12-05T01:56:49;4.60;99.90
5304;DHT22;2674;49.722;10.892;2022-12-05T01:59:18;4.70;99.90
5304;DHT22;2674;49.722;10.892;2022-12-05T02:01:45;4.70;99.90
5304;DHT22;2674;49.722;10.892;2022-12-05T02:04:11;4.70;99.90
5304;DHT22;2674;49.722;10.892;2022-12-05T02:06:37;4.70;99.90
5304;DHT22;2674;49.722;10.892;2022-12-05T02:09:03;4.70;99.90
5304;DHT22;2674;49.722;10.892;2022-12-05T02:11:30;4.70;99.90
5304;DHT22;2674;49.722;10.892;2022-12-05T02:16:55;4.70;99.90
5304;DHT22;2674;49.722;10.892;2022-12-05T02:34:43;4.60;99.90
5304;DHT22;2674;49.722;10.892;2022-12-05T02:37:28;4.60;99.90
5304;DHT22;2674;49.722;10.892;2022-12-05T02:40:02;4.50;99.90
5304;DHT22;2674;49.722;10.892;2022-12-05T02:42:37;4.60;99.90
5304;DHT22;2674;49.722;10.892;2022-12-05T02:45:12;4.60;99.90
5304;DHT22;2674;49.722;10.892;2022-12-05T02:47:45;4.60;99.90
5304;DHT22;2674;49.722;10.892;2022-12-05T02:50:14;4.60;99.90
5304;DHT22;2674;49.722;10.892;2022-12-05T02:52:44;4.60;99.90
5304;DHT22;2674;49.722;10.892;2022-12-05T02:55:13;4.60;99.90
5304;DHT22;2674;49.722;10.892;2022-12-05T02:57:45;4.50;99.90
5304;DHT22;2674;49.722;10.892;2022-12-05T03:00:14;4.50;99.90
5304;DHT22;2674;49.722;10.892;2022-12-05T03:02:40;4.50;99.90
5304;DHT22;2674;49.722;10.892;2022-12-05T03:05:29;4.50;99.90
5304;DHT22;2674;49.722;10.892;2022-12-05T03:07:59;4.50;99.90
5304;DHT22;2674;49.722;10.892;2022-12-05T03:10:28;4.50;99.90
5304;DHT22;2674;49.722;10.892;2022-12-05T03:13:02;4.50;99.90
5304;DHT22;2674;49.722;10.892;2022-12-05T03:15:39;4.40;99.90
5304;DHT22;2674;49.722;10.892;2022-12-05T03:18:20;4.40;99.90
5304;DHT22;2674;49.722;10.892;2022-12-05T03:21:26;4.40;99.90
5304;DHT22;2674;49.722;10.892;2022-12-05T03:24:10;4.40;99.90
5304;DHT22;2674;49.722;10.892;2022-12-05T03:30:01;4.40;99.90
5304;DHT22;2674;49.722;10.892;2022-12-05T03:37:29;4.40;99.90
5304;DHT22;2674;49.722;10.892;2022-12-05T03:42:46;4.40;99.90
5304;DHT22;2674;49.722;10.892;2022-12-05T03:45:18;4.40;99.90
5304;DHT22;2674;49.722;10.892;2022-12-05T03:47:59;4.40;99.90
5304;DHT22;2674;49.722;10.892;2022-12-05T03:50:29;4.40;99.90
5304;DHT22;2674;49.722;10.892;2022-12-05T03:53:12;4.40;99.90
5304;DHT22;2674;49.722;10.892;2022-12-05T03:55:42;4.30;99.90
5304;DHT22;2674;49.722;10.892;2022-12-05T03:58:13;4.30;99.90
5304;DHT22;2674;49.722;10.892;2022-12-05T04:00:44;4.20;99.90
5304;DHT22;2674;49.722;10.892;2022-12-05T04:03:19;4.20;99.90
5304;DHT22;2674;49.722;10.892;2022-12-05T04:05:49;4.20;99.90
5304;DHT22;2674;49.722;10.892;2022-12-05T04:08:28;4.20;99.90
5304;DHT22;2674;49.722;10.892;2022-12-05T04:11:01;4.20;99.90
5304;DHT22;2674;49.722;10.892;2022-12-05T04:13:45;4.20;99.90
5304;DHT22;2674;49.722;10.892;2022-12-05T04:22:17;4.20;99.90
5304;DHT22;2674;49.722;10.892;2022-12-05T04:24:43;4.20;99.90
5304;DHT22;2674;49.722;10.892;2022-12-05T04:30:23;4.10;99.90
5304;DHT22;2674;49.722;10.892;2022-12-05T04:33:34;4.10;99.90
5304;DHT22;2674;49.722;10.892;2022-12-05T04:38:44;4.10;99.90
5304;DHT22;2674;49.722;10.892;2022-12-05T04:41:20;4.10;99.90
5304;DHT22;2674;49.722;10.892;2022-12-05T04:43:48;4.10;99.90
5304;DHT22;2674;49.722;10.892;2022-12-05T04:46:16;4.10;99.90
5304;DHT22;2674;49.722;10.892;2022-12-05T04:48:48;4.00;99.90
5304;DHT22;2674;49.722;10.892;2022-12-05T04:51:18;4.00;99.90
5304;DHT22;2674;49.722;10.892;2022-12-05T04:53:47;4.00;99.90
5304;DHT22;2674;49.722;10.892;2022-12-05T04:56:15;4.00;99.90
5304;DHT22;2674;49.722;10.892;2022-12-05T04:58:42;4.00;99.90
5304;DHT22;2674;49.722;10.892;2022-12-05T05:01:22;4.00;99.90
5304;DHT22;2674;49.722;10.892;2022-12-05T05:06:31;4.00;99.90
5304;DHT22;2674;49.722;10.892;2022-12-05T05:08:57;4.00;99.90
5304;DHT22;2674;49.722;10.892;2022-12-05T05:13:50;4.00;99.90
5304;DHT22;2674;49.722;10.892;2022-12-05T05:16:50;4.00;99.90
5304;DHT22;2674;49.722;10.892;2022-12-05T05:19:10;4.00;99.90
5304;DHT22;2674;49.722;10.892;2022-12-05T05:21:41;4.00;99.90
5304;DHT22;2674;49.722;10.892;2022-12-05T05:24:08;4.00;99.90
5304;DHT22;2674;49.722;10.892;2022-12-05T05:26:37;4.00;99.90
5304;DHT22;2674;49.722;10.892;2022-12-05T05:29:04;4.00;99.90
5304;DHT22;2674;49.722;10.892;2022-12-05T05:31:30;3.90;99.90
5304;DHT22;2674;49.722;10.892;2022-12-05T05:33:56;3.90;99.90
5304;DHT22;2674;49.722;10.892;2022-12-05T05:36:25;3.90;99.90
5304;DHT22;2674;49.722;10.892;2022-12-05T05:38:54;3.90;99.90
5304;DHT22;2674;49.722;10.892;2022-12-05T05:41:38;3.90;99.90
5304;DHT22;2674;49.722;10.892;2022-12-05T05:44:04;3.90;99.90
5304;DHT22;2674;49.722;10.892;2022-12-05T05:46:32;3.90;99.90
5304;DHT22;2674;49.722;10.892;2022-12-05T05:48:59;3.90;99.90
5304;DHT22;2674;49.722;10.892;2022-12-05T05:51:25;3.90;99.90
5304;DHT22;2674;49.722;10.892;2022-12-05T05:53:54;3.90;99.90
5304;DHT22;2674;49.722;10.892;2022-12-05T05:56:20;3.90;99.90
5304;DHT22;2674;49.722;10.892;2022-12-05T05:58:46;3.90;99.90
5304;DHT22;2674;49.722;10.892;2022-12-05T06:01:18;3.90;99.90
5304;DHT22;2674;49.722;10.892;2022-12-05T06:03:47;3.90;99.90
5304;DHT22;2674;49.722;10.892;2022-12-05T06:06:14;3.90;99.90
5304;DHT22;2674;49.722;10.892;2022-12-05T06:08:41;3.80;99.90
5304;DHT22;2674;49.722;10.892;2022-12-05T06:13:38;3.80;99.90
5304;DHT22;2674;49.722;10.892;2022-12-05T06:16:09;3.80;99.90
5304;DHT22;2674;49.722;10.892;2022-12-05T06:18:36;3.80;99.90
5304;DHT22;2674;49.722;10.892;2022-12-05T06:21:03;3.80;99.90
5304;DHT22;2674;49.722;10.892;2022-12-05T06:23:30;3.80;99.90
5304;DHT22;2674;49.722;10.892;2022-12-05T06:25:56;3.80;99.90
5304;DHT22;2674;49.722;10.892;2022-12-05T06:28:24;3.70;99.90
5304;DHT22;2674;49.722;10.892;2022-12-05T06:30:51;3.70;99.90
5304;DHT22;2674;49.722;10.892;2022-12-05T06:33:17;3.70;99.90
5304;DHT22;2674;49.722;10.892;2022-12-05T06:35:43;3.70;99.90
5304;DHT22;2674;49.722;10.892;2022-12-05T06:38:09;3.70;99.90
5304;DHT22;2674;49.722;10.892;2022-12-05T06:40:42;3.70;99.90
5304;DHT22;2674;49.722;10.892;2022-12-05T06:43:08;3.70;99.90
5304;DHT22;2674;49.722;10.892;2022-12-05T06:45:37;3.70;99.90
5304;DHT22;2674;49.722;10.892;2022-12-05T06:48:03;3.60;99.90
5304;DHT22;2674;49.722;10.892;2022-12-05T06:50:29;3.70;99.90
5304;DHT22;2674;49.722;10.892;2022-12-05T06:52:56;3.70;99.90
5304;DHT22;2674;49.722;10.892;2022-12-05T06:55:22;3.60;99.90
5304;DHT22;2674;49.722;10.892;2022-12-05T06:57:48;3.60;99.90
5304;DHT22;2674;49.722;10.892;2022-12-05T07:00:14;3.60;99.90
5304;DHT22;2674;49.722;10.892;2022-12-05T07:02:58;3.60;99.90
5304;DHT22;2674;49.722;10.892;2022-12-05T07:05:27;3.60;99.90
5304;DHT22;2674;49.722;10.892;2022-12-05T07:07:53;3.60;99.90
5304;DHT22;2674;49.722;10.892;2022-12-05T07:10:19;3.60;99.90
5304;DHT22;2674;49.722;10.892;2022-12-05T07:12:45;3.60;99.90
5304;DHT22;2674;49.722;10.892;2022-12-05T07:15:11;3.60;99.90
5304;DHT22;2674;49.722;10.892;2022-12-05T07:17:37;3.60;99.90
5304;DHT22;2674;49.722;10.892;2022-12-05T07:20:05;3.60;99.90
5304;DHT22;2674;49.722;10.892;2022-12-05T07:22:33;3.60;99.90
5304;DHT22;2674;49.722;10.892;2022-12-05T07:25:00;3.60;99.90
5304;DHT22;2674;49.722;10.892;2022-12-05T07:27:25;3.60;99.90
5304;DHT22;2674;49.722;10.892;2022-12-05T07:29:51;3.60;99.90
5304;DHT22;2674;49.722;10.892;2022-12-05T07:32:17;3.60;99.90
5304;DHT22;2674;49.722;10.892;2022-12-05T07:34:43;3.40;99.90
5304;DHT22;2674;49.722;10.892;2022-12-05T07:37:09;3.60;99.90
5304;DHT22;2674;49.722;10.892;2022-12-05T07:39:34;3.60;99.90
5304;DHT22;2674;49.722;10.892;2022-12-05T07:42:00;3.60;99.90
5304;DHT22;2674;49.722;10.892;2022-12-05T07:44:26;3.60;99.90
5304;DHT22;2674;49.722;10.892;2022-12-05T07:46:52;3.60;99.90
5304;DHT22;2674;49.722;10.892;2022-12-05T07:49:18;3.60;99.90
5304;DHT22;2674;49.722;10.892;2022-12-05T07:51:44;3.70;99.90
5304;DHT22;2674;49.722;10.892;2022-12-05T07:54:10;3.70;99.90
5304;DHT22;2674;49.722;10.892;2022-12-05T07:56:36;3.70;99.90
5304;DHT22;2674;49.722;10.892;2022-12-05T07:59:01;3.70;99.90
5304;DHT22;2674;49.722;10.892;2022-12-05T08:01:29;3.70;99.90
5304;DHT22;2674;49.722;10.892;2022-12-05T08:03:57;3.60;99.90
5304;DHT22;2674;49.722;10.892;2022-12-05T08:06:25;3.70;99.90
5304;DHT22;2674;49.722;10.892;2022-12-05T08:08:52;3.70;99.90
5304;DHT22;2674;49.722;10.892;2022-12-05T08:11:24;3.70;99.90
5304;DHT22;2674;49.722;10.892;2022-12-05T08:13:51;3.70;99.90
5304;DHT22;2674;49.722;10.892;2022-12-05T08:16:22;4.20;99.90
5304;DHT22;2674;49.722;10.892;2022-12-05T08:18:52;3.70;99.90
5304;DHT22;2674;49.722;10.892;2022-12-05T08:21:18;3.70;99.90
5304;DHT22;2674;49.722;10.892;2022-12-05T08:23:45;3.80;99.90
5304;DHT22;2674;49.722;10.892;2022-12-05T08:26:14;3.80;99.90
5304;DHT22;2674;49.722;10.892;2022-12-05T08:28:40;3.80;99.90
5304;DHT22;2674;49.722;10.892;2022-12-05T08:31:11;3.90;99.90
5304;DHT22;2674;49.722;10.892;2022-12-05T08:33:37;4.10;99.90
5304;DHT22;2674;49.722;10.892;2022-12-05T08:36:06;4.20;99.90
5304;DHT22;2674;49.722;10.892;2022-12-05T08:38:33;4.20;99.90
5304;DHT22;2674;49.722;10.892;2022-12-05T08:41:00;4.20;99.90
5304;DHT22;2674;49.722;10.892;2022-12-05T08:43:28;4.20;99.90
5304;DHT22;2674;49.722;10.892;2022-12-05T08:45:54;4.20;99.90
5304;DHT22;2674;49.722;10.892;2022-12-05T08:48:20;4.10;99.90
5304;DHT22;2674;49.722;10.892;2022-12-05T08:50:46;4.10;99.90
5304;DHT22;2674;49.722;10.892;2022-12-05T08:53:12;4.00;99.90
5304;DHT22;2674;49.722;10.892;2022-12-05T08:55:38;4.00;99.90
5304;DHT22;2674;49.722;10.892;2022-12-05T08:58:04;4.00;99.90
5304;DHT22;2674;49.722;10.892;2022-12-05T09:00:30;4.00;99.90
5304;DHT22;2674;49.722;10.892;2022-12-05T09:02:56;4.00;99.90
5304;DHT22;2674;49.722;10.892;2022-12-05T09:05:23;4.00;99.90
5304;DHT22;2674;49.722;10.892;2022-12-05T09:07:49;4.00;99.90
5304;DHT22;2674;49.722;10.892;2022-12-05T09:10:15;4.00;99.90
5304;DHT22;2674;49.722;10.892;2022-12-05T09:12:41;4.00;99.90
5304;DHT22;2674;49.722;10.892;2022-12-05T09:15:08;4.00;99.90
5304;DHT22;2674;49.722;10.892;2022-12-05T09:17:34;4.00;99.90
5304;DHT22;2674;49.722;10.892;2022-12-05T09:20:00;4.00;99.90
5304;DHT22;2674;49.722;10.892;2022-12-05T09:22:26;4.00;99.90
5304;DHT22;2674;49.722;10.892;2022-12-05T09:24:52;4.00;99.90
5304;DHT22;2674;49.722;10.892;2022-12-05T09:27:19;4.00;99.90
5304;DHT22;2674;49.722;10.892;2022-12-05T09:29:45;4.00;99.90
5304;DHT22;2674;49.722;10.892;2022-12-05T09:32:10;4.00;99.90
5304;DHT22;2674;49.722;10.892;2022-12-05T09:34:37;4.00;99.90
5304;DHT22;2674;49.722;10.892;2022-12-05T09:37:04;4.00;99.90
5304;DHT22;2674;49.722;10.892;2022-12-05T09:39:30;4.10;99.90
5304;DHT22;2674;49.722;10.892;2022-12-05T09:50:16;4.20;99.90
5304;DHT22;2674;49.722;10.892;2022-12-05T09:52:59;4.20;99.90
5304;DHT22;2674;49.722;10.892;2022-12-05T10:01:03;4.10;99.90
5304;DHT22;2674;49.722;10.892;2022-12-05T10:09:38;4.10;99.90
5304;DHT22;2674;49.722;10.892;2022-12-05T10:19:58;4.10;99.90
5304;DHT22;2674;49.722;10.892;2022-12-05T10:25:02;4.10;99.90
5304;DHT22;2674;49.722;10.892;2022-12-05T10:27:32;4.10;99.90
5304;DHT22;2674;49.722;10.892;2022-12-05T10:30:14;4.10;99.90
5304;DHT22;2674;49.722;10.892;2022-12-05T10:33:12;4.20;99.90
5304;DHT22;2674;49.722;10.892;2022-12-05T10:35:37;4.20;99.90
5304;DHT22;2674;49.722;10.892;2022-12-05T10:38:06;4.30;99.90
5304;DHT22;2674;49.722;10.892;2022-12-05T10:40:39;4.20;99.90
5304;DHT22;2674;49.722;10.892;2022-12-05T10:43:06;4.30;99.90
5304;DHT22;2674;49.722;10.892;2022-12-05T10:45:44;4.30;99.90
5304;DHT22;2674;49.722;10.892;2022-12-05T10:48:12;4.40;99.90
5304;DHT22;2674;49.722;10.892;2022-12-05T10:50:39;4.40;99.90
5304;DHT22;2674;49.722;10.892;2022-12-05T10:53:07;4.40;99.90
5304;DHT22;2674;49.722;10.892;2022-12-05T10:55:40;4.40;99.90
5304;DHT22;2674;49.722;10.892;2022-12-05T10:58:15;4.40;99.90
5304;DHT22;2674;49.722;10.892;2022-12-05T11:00:47;4.40;99.90
5304;DHT22;2674;49.722;10.892;2022-12-05T11:03:27;4.40;99.90
5304;DHT22;2674;49.722;10.892;2022-12-05T11:05:56;4.40;99.90
5304;DHT22;2674;49.722;10.892;2022-12-05T11:08:27;4.40;99.90
5304;DHT22;2674;49.722;10.892;2022-12-05T11:11:17;4.40;99.90
5304;DHT22;2674;49.722;10.892;2022-12-05T11:14:03;4.40;99.90
5304;DHT22;2674;49.722;10.892;2022-12-05T11:16:36;4.40;99.90
5304;DHT22;2674;49.722;10.892;2022-12-05T11:21:48;4.30;99.90
5304;DHT22;2674;49.722;10.892;2022-12-05T11:24:24;4.30;99.90
5304;DHT22;2674;49.722;10.892;2022-12-05T11:26:51;4.30;99.90
5304;DHT22;2674;49.722;10.892;2022-12-05T11:31:54;4.30;99.90
5304;DHT22;2674;49.722;10.892;2022-12-05T11:34:30;4.30;99.90
5304;DHT22;2674;49.722;10.892;2022-12-05T11:37:11;4.30;99.90
5304;DHT22;2674;49.722;10.892;2022-12-05T11:39:41;4.30;99.90
5304;DHT22;2674;49.722;10.892;2022-12-05T11:42:28;4.40;99.90
5304;DHT22;2674;49.722;10.892;2022-12-05T11:55:58;4.40;99.90
5304;DHT22;2674;49.722;10.892;2022-12-05T12:05:02;4.40;99.90
5304;DHT22;2674;49.722;10.892;2022-12-05T12:10:27;4.50;99.90
5304;DHT22;2674;49.722;10.892;2022-12-05T12:13:20;4.50;99.90
5304;DHT22;2674;49.722;10.892;2022-12-05T12:19:00;4.50;99.90
5304;DHT22;2674;49.722;10.892;2022-12-05T12:24:42;4.50;99.90
5304;DHT22;2674;49.722;10.892;2022-12-05T12:27:35;4.50;99.90
5304;DHT22;2674;49.722;10.892;2022-12-05T12:35:31;4.60;99.90
5304;DHT22;2674;49.722;10.892;2022-12-05T12:46:52;4.70;99.90
5304;DHT22;2674;49.722;10.892;2022-12-05T12:50:09;4.70;99.90
5304;DHT22;2674;49.722;10.892;2022-12-05T12:52:23;4.70;99.90
5304;DHT22;2674;49.722;10.892;2022-12-05T12:55:13;4.80;99.90
5304;DHT22;2674;49.722;10.892;2022-12-05T13:14:34;4.80;99.90
5304;DHT22;2674;49.722;10.892;2022-12-05T13:17:01;4.90;99.90
5304;DHT22;2674;49.722;10.892;2022-12-05T13:22:02;4.90;99.90
5304;DHT22;2674;49.722;10.892;2022-12-05T13:24:29;4.90;99.90
5304;DHT22;2674;49.722;10.892;2022-12-05T13:26:59;4.90;99.90
5304;DHT22;2674;49.722;10.892;2022-12-05T13:29:42;4.90;99.90
5304;DHT22;2674;49.722;10.892;2022-12-05T13:32:34;4.90;99.90
5304;DHT22;2674;49.722;10.892;2022-12-05T13:35:20;4.90;99.90
5304;DHT22;2674;49.722;10.892;2022-12-05T13:38:30;4.90;99.90
5304;DHT22;2674;49.722;10.892;2022-12-05T13:41:15;5.00;99.90
5304;DHT22;2674;49.722;10.892;2022-12-05T13:44:01;5.00;99.90
5304;DHT22;2674;49.722;10.892;2022-12-05T13:46:30;5.00;99.90
5304;DHT22;2674;49.722;10.892;2022-12-05T13:49:04;5.00;99.90
5304;DHT22;2674;49.722;10.892;2022-12-05T13:51:32;5.00;99.90
5304;DHT22;2674;49.722;10.892;2022-12-05T13:54:09;5.00;99.90
5304;DHT22;2674;49.722;10.892;2022-12-05T13:56:57;5.00;99.90
5304;DHT22;2674;49.722;10.892;2022-12-05T14:07:41;5.00;99.90
5304;DHT22;2674;49.722;10.892;2022-12-05T14:10:13;5.00;99.90
5304;DHT22;2674;49.722;10.892;2022-12-05T14:12:54;5.00;99.90
5304;DHT22;2674;49.722;10.892;2022-12-05T14:17:56;5.00;99.90
5304;DHT22;2674;49.722;10.892;2022-12-05T14:20:51;5.00;99.90
5304;DHT22;2674;49.722;10.892;2022-12-05T14:34:25;4.90;99.90
5304;DHT22;2674;49.722;10.892;2022-12-05T14:36:55;4.90;99.90
5304;DHT22;2674;49.722;10.892;2022-12-05T14:39:37;4.90;99.90
5304;DHT22;2674;49.722;10.892;2022-12-05T14:42:25;4.90;99.90
5304;DHT22;2674;49.722;10.892;2022-12-05T14:44:57;4.80;99.90
5304;DHT22;2674;49.722;10.892;2022-12-05T14:47:29;4.80;99.90
5304;DHT22;2674;49.722;10.892;2022-12-05T14:52:42;4.80;99.90
5304;DHT22;2674;49.722;10.892;2022-12-05T14:55:15;4.80;99.90
5304;DHT22;2674;49.722;10.892;2022-12-05T14:57:47;4.80;99.90
5304;DHT22;2674;49.722;10.892;2022-12-05T15:00:20;4.80;99.90
5304;DHT22;2674;49.722;10.892;2022-12-05T15:02:49;5.10;99.90
5304;DHT22;2674;49.722;10.892;2022-12-05T15:05:31;4.80;99.90
5304;DHT22;2674;49.722;10.892;2022-12-05T15:07:59;4.80;99.90
5304;DHT22;2674;49.722;10.892;2022-12-05T15:10:34;4.80;99.90
5304;DHT22;2674;49.722;10.892;2022-12-05T15:13:27;4.70;99.90
5304;DHT22;2674;49.722;10.892;2022-12-05T15:16:01;4.70;99.90
5304;DHT22;2674;49.722;10.892;2022-12-05T15:18:38;4.70;99.90
5304;DHT22;2674;49.722;10.892;2022-12-05T15:21:33;4.70;99.90
5304;DHT22;2674;49.722;10.892;2022-12-05T15:24:03;4.70;99.90
5304;DHT22;2674;49.722;10.892;2022-12-05T15:31:37;4.70;99.90
5304;DHT22;2674;49.722;10.892;2022-12-05T15:37:12;4.70;99.90
5304;DHT22;2674;49.722;10.892;2022-12-05T15:40:01;4.70;99.90
5304;DHT22;2674;49.722;10.892;2022-12-05T15:47:50;4.60;99.90
5304;DHT22;2674;49.722;10.892;2022-12-05T15:50:29;4.60;99.90
5304;DHT22;2674;49.722;10.892;2022-12-05T15:55:35;4.60;99.90
5304;DHT22;2674;49.722;10.892;2022-12-05T15:58:07;4.60;99.90
5304;DHT22;2674;49.722;10.892;2022-12-05T16:00:37;4.60;99.90
5304;DHT22;2674;49.722;10.892;2022-12-05T16:03:19;4.60;99.90
5304;DHT22;2674;49.722;10.892;2022-12-05T16:05:49;4.60;99.90
5304;DHT22;2674;49.722;10.892;2022-12-05T16:08:17;4.60;99.90
5304;DHT22;2674;49.722;10.892;2022-12-05T16:10:43;4.60;99.90
5304;DHT22;2674;49.722;10.892;2022-12-05T16:13:14;4.60;99.90
5304;DHT22;2674;49.722;10.892;2022-12-05T16:15:47;4.60;99.90
5304;DHT22;2674;49.722;10.892;2022-12-05T16:18:24;4.60;99.90
5304;DHT22;2674;49.722;10.892;2022-12-05T16:20:51;4.60;99.90
5304;DHT22;2674;49.722;10.892;2022-12-05T16:23:29;4.60;99.90
5304;DHT22;2674;49.722;10.892;2022-12-05T16:26:17;4.60;99.90
5304;DHT22;2674;49.722;10.892;2022-12-05T16:28:56;4.50;99.90
5304;DHT22;2674;49.722;10.892;2022-12-05T16:31:22;4.50;99.90
5304;DHT22;2674;49.722;10.892;2022-12-05T16:34:05;4.50;99.90
5304;DHT22;2674;49.722;10.892;2022-12-05T16:36:32;4.50;99.90
5304;DHT22;2674;49.722;10.892;2022-12-05T16:39:03;4.50;99.90
5304;DHT22;2674;49.722;10.892;2022-12-05T16:41:37;4.50;99.90
5304;DHT22;2674;49.722;10.892;2022-12-05T16:44:05;4.50;99.90
5304;DHT22;2674;49.722;10.892;2022-12-05T16:46:50;4.50;99.90
5304;DHT22;2674;49.722;10.892;2022-12-05T16:52:17;4.50;99.90
5304;DHT22;2674;49.722;10.892;2022-12-05T16:54:47;4.50;99.90
5304;DHT22;2674;49.722;10.892;2022-12-05T16:57:16;4.40;99.90
5304;DHT22;2674;49.722;10.892;2022-12-05T16:59:42;4.40;99.90
5304;DHT22;2674;49.722;10.892;2022-12-05T17:02:13;4.40;99.90
5304;DHT22;2674;49.722;10.892;2022-12-05T17:04:40;4.40;99.90
5304;DHT22;2674;49.722;10.892;2022-12-05T17:07:06;4.40;99.90
5304;DHT22;2674;49.722;10.892;2022-12-05T17:09:31;4.40;99.90
5304;DHT22;2674;49.722;10.892;2022-12-05T17:12:04;4.40;99.90
5304;DHT22;2674;49.722;10.892;2022-12-05T17:14:31;4.40;99.90
5304;DHT22;2674;49.722;10.892;2022-12-05T17:16:57;4.40;99.90
5304;DHT22;2674;49.722;10.892;2022-12-05T17:19:23;4.40;99.90
5304;DHT22;2674;49.722;10.892;2022-12-05T17:21:49;4.30;99.90
5304;DHT22;2674;49.722;10.892;2022-12-05T17:24:16;4.30;99.90
5304;DHT22;2674;49.722;10.892;2022-12-05T17:26:43;4.30;99.90
5304;DHT22;2674;49.722;10.892;2022-12-05T17:29:10;4.30;99.90
5304;DHT22;2674;49.722;10.892;2022-12-05T17:31:36;4.30;99.90
5304;DHT22;2674;49.722;10.892;2022-12-05T17:34:02;4.30;99.90
5304;DHT22;2674;49.722;10.892;2022-12-05T17:36:27;4.20;99.90
5304;DHT22;2674;49.722;10.892;2022-12-05T17:38:53;4.20;99.90
5304;DHT22;2674;49.722;10.892;2022-12-05T17:41:21;4.20;99.90
5304;DHT22;2674;49.722;10.892;2022-12-05T17:43:48;4.20;99.90
5304;DHT22;2674;49.722;10.892;2022-12-05T17:46:18;4.20;99.90
5304;DHT22;2674;49.722;10.892;2022-12-05T17:48:45;4.20;99.90
5304;DHT22;2674;49.722;10.892;2022-12-05T17:51:11;4.10;99.90
5304;DHT22;2674;49.722;10.892;2022-12-05T17:53:39;4.10;99.90
5304;DHT22;2674;49.722;10.892;2022-12-05T17:56:06;4.10;99.90
5304;DHT22;2674;49.722;10.892;2022-12-05T17:58:32;4.10;99.90
5304;DHT22;2674;49.722;10.892;2022-12-05T18:00:58;4.10;99.90
5304;DHT22;2674;49.722;10.892;2022-12-05T18:03:25;4.00;99.90
5304;DHT22;2674;49.722;10.892;2022-12-05T18:05:51;4.00;99.90
5304;DHT22;2674;49.722;10.892;2022-12-05T18:08:17;4.00;99.90
5304;DHT22;2674;49.722;10.892;2022-12-05T18:10:44;4.00;99.90
5304;DHT22;2674;49.722;10.892;2022-12-05T18:13:11;4.00;99.90
5304;DHT22;2674;49.722;10.892;2022-12-05T18:15:38;4.00;99.90
5304;DHT22;2674;49.722;10.892;2022-12-05T18:18:05;4.00;99.90
5304;DHT22;2674;49.722;10.892;2022-12-05T18:20:33;4.00;99.90
5304;DHT22;2674;49.722;10.892;2022-12-05T18:23:00;4.00;99.90
5304;DHT22;2674;49.722;10.892;2022-12-05T18:25:27;4.00;99.90
5304;DHT22;2674;49.722;10.892;2022-12-05T18:27:53;4.00;99.90
5304;DHT22;2674;49.722;10.892;2022-12-05T18:30:19;4.00;99.90
5304;DHT22;2674;49.722;10.892;2022-12-05T18:32:44;4.00;99.90
5304;DHT22;2674;49.722;10.892;2022-12-05T18:35:10;4.00;99.90
5304;DHT22;2674;49.722;10.892;2022-12-05T18:37:37;4.00;99.90
5304;DHT22;2674;49.722;10.892;2022-12-05T18:40:04;4.00;99.90
5304;DHT22;2674;49.722;10.892;2022-12-05T18:42:30;4.00;99.90
5304;DHT22;2674;49.722;10.892;2022-12-05T18:44:56;4.00;99.90
5304;DHT22;2674;49.722;10.892;2022-12-05T18:47:22;3.90;99.90
5304;DHT22;2674;49.722;10.892;2022-12-05T18:49:49;4.00;99.90
5304;DHT22;2674;49.722;10.892;2022-12-05T18:52:16;3.90;99.90
5304;DHT22;2674;49.722;10.892;2022-12-05T18:54:42;3.90;99.90
5304;DHT22;2674;49.722;10.892;2022-12-05T18:57:08;3.90;99.90
5304;DHT22;2674;49.722;10.892;2022-12-05T18:59:34;3.80;99.90
5304;DHT22;2674;49.722;10.892;2022-12-05T19:02:00;3.80;99.90
5304;DHT22;2674;49.722;10.892;2022-12-05T19:04:27;3.80;99.90
5304;DHT22;2674;49.722;10.892;2022-12-05T19:06:55;3.80;99.90
5304;DHT22;2674;49.722;10.892;2022-12-05T19:09:24;3.70;99.90
5304;DHT22;2674;49.722;10.892;2022-12-05T19:11:52;3.70;99.90
5304;DHT22;2674;49.722;10.892;2022-12-05T19:14:26;3.70;99.90
5304;DHT22;2674;49.722;10.892;2022-12-05T19:16:54;3.70;99.90
5304;DHT22;2674;49.722;10.892;2022-12-05T19:19:20;3.70;99.90
5304;DHT22;2674;49.722;10.892;2022-12-05T19:21:47;3.70;99.90
5304;DHT22;2674;49.722;10.892;2022-12-05T19:24:15;3.60;99.90
5304;DHT22;2674;49.722;10.892;2022-12-05T19:26:41;3.60;99.90
5304;DHT22;2674;49.722;10.892;2022-12-05T19:29:09;3.60;99.90
5304;DHT22;2674;49.722;10.892;2022-12-05T19:31:35;3.60;99.90
5304;DHT22;2674;49.722;10.892;2022-12-05T19:34:03;3.60;99.90
5304;DHT22;2674;49.722;10.892;2022-12-05T19:36:39;3.60;99.90